Time;durP1;ratioP1;P1;durP2;ratioP2;P2;SDS_P1;SDS_P2;PMS_P1;PMS_P2;Temp;Humidity;BMP_temperature;BMP_pressure;BME280_temperature;BME280_humidity;BME280_pressure;Samples;Min_cycle;Max_cycle;Signal;HPM_P1;HPM_P2
2022/04/06 00:05:09;;;;;;;14.13;9.37;;;8.30;99.90;;;;;;5075663;28;20218;-76
2022/04/06 00:07:35;;;;;;;13.53;9.70;;;8.30;99.90;;;;;;5057978;28;20785;-76
2022/04/06 00:10:01;;;;;;;13.17;9.23;;;8.30;99.90;;;;;;5041326;28;20267;-76
2022/04/06 00:12:26;;;;;;;13.03;9.70;;;8.20;99.90;;;;;;5041154;28;20543;-76
2022/04/06 00:14:52;;;;;;;12.70;9.10;;;8.30;99.90;;;;;;5025022;28;20186;-76
2022/04/06 00:17:18;;;;;;;13.13;9.73;;;8.20;99.90;;;;;;5024764;28;20217;-76
2022/04/06 00:19:43;;;;;;;11.93;9.10;;;8.20;99.90;;;;;;5040923;28;20268;-76
2022/04/06 00:22:09;;;;;;;12.77;9.33;;;8.20;99.90;;;;;;5024132;28;20273;-76
2022/04/06 00:24:34;;;;;;;12.43;8.80;;;8.20;99.90;;;;;;5024449;28;20234;-76
2022/04/06 00:27:00;;;;;;;11.70;9.20;;;8.30;99.90;;;;;;5057626;28;20199;-76
2022/04/06 00:29:26;;;;;;;11.53;8.97;;;8.30;99.90;;;;;;5041036;28;20233;-76
2022/04/06 00:31:51;;;;;;;13.33;9.60;;;8.30;99.90;;;;;;5057355;28;20198;-77
2022/04/06 00:34:17;;;;;;;12.00;9.30;;;8.30;99.90;;;;;;5040837;28;20552;-76
2022/04/06 00:36:44;;;;;;;13.27;9.03;;;8.30;99.90;;;;;;5024457;28;20230;-76
2022/04/06 00:39:09;;;;;;;11.47;8.67;;;8.30;99.90;;;;;;5040666;28;20555;-76
2022/04/06 00:41:36;;;;;;;11.00;8.50;;;8.30;99.90;;;;;;5024098;28;20227;-76
2022/04/06 00:44:19;;;;;;;11.90;8.70;;;8.30;99.90;;;;;;5040436;28;20177;-76
2022/04/06 00:46:46;;;;;;;12.33;9.43;;;8.20;99.90;;;;;;5024240;28;20161;-76
2022/04/06 00:49:14;;;;;;;12.03;8.50;;;8.20;99.90;;;;;;5047581;22;20217;-77
2022/04/06 00:51:47;;;;;;;12.10;8.80;;;8.30;99.90;;;;;;5020855;28;20249;-77
2022/04/06 00:54:15;;;;;;;13.23;9.13;;;8.20;99.90;;;;;;5037068;28;20212;-77
2022/04/06 00:56:42;;;;;;;10.77;8.43;;;8.20;99.90;;;;;;5036914;28;20531;-77
2022/04/06 00:59:08;;;;;;;10.93;8.47;;;8.20;99.90;;;;;;5037181;28;20203;-77
2022/04/06 01:04:56;;;;;;;9.77;7.80;;;8.30;99.90;;;;;;5054697;28;20178;-77
2022/04/06 01:07:24;;;;;;;11.43;7.87;;;8.20;99.90;;;;;;5003895;28;20643;-77
2022/04/06 01:09:50;;;;;;;11.07;8.77;;;8.30;99.90;;;;;;5020758;28;20309;-77
2022/04/06 01:12:16;;;;;;;10.63;7.93;;;8.30;99.90;;;;;;5036543;28;20178;-77
2022/04/06 01:14:43;;;;;;;10.30;8.27;;;8.30;99.90;;;;;;5036568;28;20169;-77
2022/04/06 01:17:09;;;;;;;11.33;8.40;;;8.30;99.90;;;;;;5020021;28;20648;-77
2022/04/06 01:19:41;;;;;;;10.40;7.97;;;8.30;99.90;;;;;;5036543;28;20197;-77
2022/04/06 01:22:08;;;;;;;9.37;7.40;;;8.30;99.90;;;;;;5020309;28;20171;-77
2022/04/06 01:24:34;;;;;;;11.60;8.40;;;8.30;99.90;;;;;;5020204;28;20199;-77
2022/04/06 01:27:01;;;;;;;11.80;8.60;;;8.30;99.90;;;;;;5020345;28;20348;-77
2022/04/06 01:29:27;;;;;;;10.07;7.40;;;8.40;99.90;;;;;;5036178;28;20709;-77
2022/04/06 01:31:53;;;;;;;10.37;7.33;;;8.40;99.90;;;;;;5019872;28;20667;-77
2022/04/06 01:34:18;;;;;;;10.23;7.57;;;8.40;99.90;;;;;;5019695;28;20219;-77
2022/04/06 01:36:44;;;;;;;11.97;7.90;;;8.30;99.90;;;;;;5003447;28;20269;-77
2022/04/06 01:39:10;;;;;;;9.60;7.60;;;8.30;99.90;;;;;;5036320;28;20225;-77
2022/04/06 01:41:37;;;;;;;9.37;7.13;;;8.40;99.90;;;;;;5053853;28;20558;-77
2022/04/06 01:44:06;;;;;;;10.90;7.60;;;8.30;99.90;;;;;;5003691;28;20175;-77
2022/04/06 01:46:33;;;;;;;10.93;7.53;;;8.30;99.90;;;;;;5020260;28;20179;-77
2022/04/06 01:54:36;;;;;;;8.80;6.67;;;8.40;99.90;;;;;;5025101;28;20678;-77
2022/04/06 01:57:01;;;;;;;8.93;6.70;;;8.40;99.90;;;;;;5002963;28;20174;-77
2022/04/06 01:59:27;;;;;;;9.77;7.17;;;8.40;99.90;;;;;;5019596;28;20200;-77
2022/04/06 02:02:49;;;;;;;8.33;6.80;;;8.40;99.90;;;;;;5019296;28;20264;-77
2022/04/06 02:05:15;;;;;;;9.47;6.57;;;8.40;99.90;;;;;;5035611;28;20170;-77
2022/04/06 02:07:42;;;;;;;8.83;6.83;;;8.40;99.90;;;;;;5035723;28;20205;-77
2022/04/06 02:10:09;;;;;;;9.50;6.97;;;8.30;99.90;;;;;;5019179;28;20210;-77
2022/04/06 02:12:35;;;;;;;9.33;7.17;;;8.30;99.90;;;;;;5035489;28;20172;-77
2022/04/06 02:15:00;;;;;;;8.60;6.53;;;8.30;99.90;;;;;;5035654;28;20223;-77
2022/04/06 02:17:27;;;;;;;9.23;6.63;;;8.30;99.90;;;;;;5035651;28;20230;-77
2022/04/06 02:19:53;;;;;;;9.20;6.07;;;8.40;99.90;;;;;;5018484;28;20178;-77
2022/04/06 02:22:19;;;;;;;9.00;6.17;;;8.40;99.90;;;;;;5035286;28;20179;-77
2022/04/06 02:24:45;;;;;;;8.53;6.50;;;8.40;99.90;;;;;;5018918;28;20178;-77
2022/04/06 02:27:11;;;;;;;10.20;6.63;;;8.30;99.90;;;;;;5035172;28;20181;-77
2022/04/06 02:29:39;;;;;;;8.10;6.40;;;8.30;99.90;;;;;;5035362;28;20202;-77
2022/04/06 02:32:05;;;;;;;9.30;6.30;;;8.30;99.90;;;;;;5019096;28;20173;-77
2022/04/06 02:34:31;;;;;;;9.90;6.07;;;8.40;99.90;;;;;;5035358;28;20578;-77
2022/04/06 02:36:57;;;;;;;9.53;6.13;;;8.40;99.90;;;;;;5052885;28;20177;-77
2022/04/06 02:39:23;;;;;;;8.87;6.10;;;8.30;99.90;;;;;;5035507;28;20195;-77
2022/04/06 02:41:48;;;;;;;9.27;6.37;;;8.30;99.90;;;;;;5052751;28;20170;-77
2022/04/06 02:44:15;;;;;;;9.63;6.73;;;8.20;99.90;;;;;;5052775;28;20200;-77
2022/04/06 02:46:41;;;;;;;9.70;6.73;;;8.30;99.90;;;;;;5052745;28;20198;-77
2022/04/06 02:49:07;;;;;;;9.00;6.23;;;8.30;99.90;;;;;;5018658;28;20210;-77
2022/04/06 02:51:32;;;;;;;10.17;6.87;;;8.30;99.90;;;;;;5018423;28;20230;-77
2022/04/06 02:53:58;;;;;;;7.90;6.33;;;8.20;99.90;;;;;;5002049;28;20174;-77
2022/04/06 02:56:24;;;;;;;9.27;6.83;;;8.30;99.90;;;;;;5018470;28;20173;-77
2022/04/06 02:58:49;;;;;;;8.37;6.77;;;8.20;99.90;;;;;;5002331;28;20207;-77
2022/04/06 03:01:15;;;;;;;9.47;6.80;;;8.20;99.90;;;;;;5018299;28;20270;-77
2022/04/06 03:03:41;;;;;;;9.20;6.30;;;8.20;99.90;;;;;;5034459;28;20189;-77
2022/04/06 03:06:07;;;;;;;9.97;6.83;;;8.20;99.90;;;;;;5018582;28;20182;-77
2022/04/06 03:08:33;;;;;;;10.87;6.83;;;8.20;99.90;;;;;;5018122;28;20209;-77
2022/04/06 03:10:59;;;;;;;8.00;6.23;;;8.20;99.90;;;;;;5002289;28;20183;-77
2022/04/06 03:13:25;;;;;;;8.80;6.13;;;8.30;99.90;;;;;;5002085;28;20181;-77
2022/04/06 03:15:51;;;;;;;8.57;6.83;;;8.20;99.90;;;;;;5034623;28;20202;-77
2022/04/06 03:18:16;;;;;;;9.37;6.77;;;8.20;99.90;;;;;;5018463;28;20198;-77
2022/04/06 03:20:42;;;;;;;10.27;7.07;;;8.20;99.90;;;;;;5018462;28;20180;-77
2022/04/06 03:23:08;;;;;;;11.07;7.00;;;8.20;99.90;;;;;;5018144;28;20268;-77
2022/04/06 03:25:34;;;;;;;9.27;6.77;;;8.30;99.90;;;;;;5002242;28;20554;-77
2022/04/06 03:28:00;;;;;;;10.30;7.10;;;8.30;99.90;;;;;;5017920;28;20283;-77
2022/04/06 03:30:25;;;;;;;9.97;6.67;;;8.20;99.90;;;;;;5002128;28;20236;-77
2022/04/06 03:32:51;;;;;;;9.13;7.10;;;8.30;99.90;;;;;;5021818;28;20227;-77
2022/04/06 03:35:17;;;;;;;9.10;6.60;;;8.30;99.90;;;;;;5005741;28;20181;-77
2022/04/06 03:37:43;;;;;;;8.37;6.67;;;8.30;99.90;;;;;;5038382;28;20264;-77
2022/04/06 03:40:09;;;;;;;10.07;7.50;;;8.20;99.90;;;;;;5022029;28;20677;-77
2022/04/06 03:42:36;;;;;;;9.10;7.10;;;8.30;99.90;;;;;;5005836;28;20182;-77
2022/04/06 03:45:03;;;;;;;10.33;7.40;;;8.30;99.90;;;;;;5038281;28;20182;-77
2022/04/06 03:47:33;;;;;;;11.00;7.43;;;8.20;99.90;;;;;;5021897;28;20189;-77
2022/04/06 03:49:59;;;;;;;10.37;6.30;;;8.20;99.90;;;;;;5021873;28;20202;-77
2022/04/06 03:52:26;;;;;;;10.70;6.83;;;8.30;99.90;;;;;;5021559;28;20193;-77
2022/04/06 03:54:52;;;;;;;10.20;7.07;;;8.30;99.90;;;;;;5021686;28;20265;-77
2022/04/06 03:57:17;;;;;;;9.30;6.63;;;8.30;99.90;;;;;;5021452;28;20181;-77
2022/04/06 03:59:43;;;;;;;10.20;6.90;;;8.30;99.90;;;;;;5021973;28;20177;-77
2022/04/06 04:02:45;;;;;;;10.00;7.13;;;8.30;99.90;;;;;;5037541;28;20176;-77
2022/04/06 04:05:12;;;;;;;10.17;7.33;;;8.30;99.90;;;;;;5038178;28;20216;-77
2022/04/06 04:07:37;;;;;;;10.67;7.43;;;8.30;99.90;;;;;;5021400;28;20199;-77
2022/04/06 04:10:08;;;;;;;11.57;7.80;;;8.30;99.90;;;;;;5004947;28;20255;-77
2022/04/06 04:12:34;;;;;;;8.93;6.47;;;8.30;99.90;;;;;;5037768;28;20167;-77
2022/04/06 04:15:00;;;;;;;10.33;7.10;;;8.30;99.90;;;;;;5021527;28;20186;-77
2022/04/06 04:17:25;;;;;;;9.43;8.00;;;8.30;99.90;;;;;;5005016;28;20175;-77
2022/04/06 04:19:51;;;;;;;10.17;7.40;;;8.20;99.90;;;;;;5021400;28;20190;-77
2022/04/06 04:22:16;;;;;;;9.63;7.33;;;8.20;99.90;;;;;;5037712;28;20179;-76
2022/04/06 04:24:42;;;;;;;10.53;7.60;;;8.30;99.90;;;;;;5004610;28;20184;-77
2022/04/06 04:27:08;;;;;;;10.00;6.93;;;8.30;99.90;;;;;;5037557;28;20173;-77
2022/04/06 04:29:34;;;;;;;10.40;7.40;;;8.30;99.90;;;;;;5004885;28;20208;-77
2022/04/06 04:32:00;;;;;;;10.00;6.67;;;8.40;99.90;;;;;;5037593;28;20174;-77
2022/04/06 04:34:25;;;;;;;11.13;7.33;;;8.40;99.90;;;;;;5021225;28;20650;-77
2022/04/06 04:36:52;;;;;;;11.30;6.70;;;8.40;99.90;;;;;;5037698;28;20716;-77
2022/04/06 04:39:18;;;;;;;9.23;6.83;;;8.40;99.90;;;;;;5020902;28;20201;-77
2022/04/06 04:41:45;;;;;;;9.93;7.20;;;8.40;99.90;;;;;;5020591;28;20554;-77
2022/04/06 04:44:11;;;;;;;9.70;6.83;;;8.40;99.90;;;;;;5036850;28;20178;-77
2022/04/06 04:46:36;;;;;;;11.03;7.03;;;8.30;99.90;;;;;;5004802;28;20188;-77
2022/04/06 04:49:02;;;;;;;8.67;6.43;;;8.20;99.90;;;;;;5037173;28;20577;-77
2022/04/06 04:51:28;;;;;;;8.97;6.60;;;8.20;99.90;;;;;;5020915;28;20202;-77
2022/04/06 04:53:57;;;;;;;9.20;6.80;;;8.20;99.90;;;;;;5037086;28;20170;-77
2022/04/06 04:56:24;;;;;;;9.40;6.93;;;8.20;99.90;;;;;;5036961;28;20170;-77
2022/04/06 04:58:50;;;;;;;9.17;7.10;;;8.30;99.90;;;;;;5004393;28;20631;-77
2022/04/06 05:01:53;;;;;;;8.90;6.60;;;8.20;99.90;;;;;;5036933;28;20660;-77
2022/04/06 05:04:19;;;;;;;9.87;6.57;;;8.20;99.90;;;;;;5036815;28;20175;-77
2022/04/06 05:06:45;;;;;;;9.97;6.87;;;8.20;99.90;;;;;;5004394;28;20182;-77
2022/04/06 05:09:10;;;;;;;10.73;6.87;;;8.20;99.90;;;;;;5020189;28;20207;-77
2022/04/06 05:11:36;;;;;;;9.73;6.63;;;8.20;99.90;;;;;;5036578;28;20185;-77
2022/04/06 05:14:02;;;;;;;10.80;6.83;;;8.30;99.90;;;;;;5020349;28;20180;-77
2022/04/06 05:16:28;;;;;;;9.97;6.47;;;8.20;99.90;;;;;;5020534;28;20178;-78
2022/04/06 05:18:55;;;;;;;8.60;6.30;;;8.20;99.90;;;;;;5003869;28;20262;-77
2022/04/06 05:21:20;;;;;;;9.23;5.70;;;8.20;99.90;;;;;;5037440;28;20283;-76
2022/04/06 05:23:46;;;;;;;9.03;5.73;;;8.20;99.90;;;;;;5004350;28;20656;-78
2022/04/06 05:26:12;;;;;;;8.83;5.73;;;8.20;99.90;;;;;;5005172;28;20179;-78
2022/04/06 05:28:38;;;;;;;7.60;5.03;;;8.20;99.90;;;;;;5020741;28;20209;-77
2022/04/06 05:31:04;;;;;;;7.83;5.17;;;8.20;99.90;;;;;;5003651;28;20224;-77
2022/04/06 05:33:29;;;;;;;7.43;4.03;;;8.20;99.90;;;;;;5003629;28;20553;-77
2022/04/06 05:35:55;;;;;;;6.73;3.83;;;8.30;99.90;;;;;;5020017;28;20228;-77
2022/04/06 05:38:21;;;;;;;6.97;4.60;;;8.30;99.90;;;;;;5019827;28;20282;-77
2022/04/06 05:40:46;;;;;;;7.57;4.13;;;8.30;99.90;;;;;;5003664;28;20179;-76
2022/04/06 05:43:12;;;;;;;6.77;4.60;;;8.30;99.90;;;;;;5003374;28;20180;-77
2022/04/06 05:45:38;;;;;;;6.27;4.80;;;8.20;99.90;;;;;;5019475;28;20274;-77
2022/04/06 05:48:05;;;;;;;6.47;4.10;;;8.20;99.90;;;;;;5019623;28;20215;-77
2022/04/06 05:50:30;;;;;;;7.47;4.40;;;8.20;99.90;;;;;;5036099;28;20168;-77
2022/04/06 05:52:56;;;;;;;8.23;3.63;;;8.20;99.90;;;;;;5003259;28;20267;-77
2022/04/06 05:55:22;;;;;;;5.27;3.67;;;8.20;99.90;;;;;;5002106;28;20178;-77
2022/04/06 05:57:47;;;;;;;8.47;3.80;;;8.20;99.90;;;;;;5019352;28;20192;-77
2022/04/06 06:00:14;;;;;;;7.00;3.93;;;8.20;99.90;;;;;;5003433;28;20184;-77
2022/04/06 06:03:11;;;;;;;6.30;4.30;;;8.30;99.90;;;;;;5003273;28;20183;-76
2022/04/06 06:05:36;;;;;;;6.23;4.27;;;8.20;99.90;;;;;;5019238;28;20186;-76
2022/04/06 06:08:02;;;;;;;7.20;3.97;;;8.30;99.90;;;;;;5002638;28;20198;-76
2022/04/06 06:10:28;;;;;;;5.20;3.47;;;8.30;99.90;;;;;;5035560;28;20206;-76
2022/04/06 06:12:54;;;;;;;5.37;3.40;;;8.20;99.90;;;;;;5018873;28;20173;-76
2022/04/06 06:15:19;;;;;;;4.73;3.10;;;8.20;99.90;;;;;;5019245;28;20178;-77
2022/04/06 06:17:45;;;;;;;6.27;3.30;;;8.10;99.90;;;;;;5019132;28;20305;-76
2022/04/06 06:20:11;;;;;;;6.40;3.27;;;8.10;99.90;;;;;;5019331;28;20181;-76
2022/04/06 06:22:36;;;;;;;3.73;3.10;;;8.20;99.90;;;;;;5018856;28;20657;-76
2022/04/06 06:25:02;;;;;;;5.53;3.13;;;8.20;99.90;;;;;;5018728;28;20269;-76
2022/04/06 06:27:28;;;;;;;6.47;3.10;;;8.20;99.90;;;;;;5035231;28;20183;-76
2022/04/06 06:29:54;;;;;;;3.80;2.43;;;8.20;99.90;;;;;;5019037;28;20753;-76
2022/04/06 06:32:19;;;;;;;5.80;2.93;;;8.30;99.90;;;;;;5002560;28;20182;-76
2022/04/06 06:34:45;;;;;;;4.53;2.50;;;8.30;99.90;;;;;;5002356;28;20538;-76
2022/04/06 06:37:11;;;;;;;3.97;2.43;;;8.30;99.90;;;;;;5002387;28;20246;-76
2022/04/06 06:39:37;;;;;;;4.43;2.60;;;8.30;99.90;;;;;;5035441;28;20666;-76
2022/04/06 06:42:04;;;;;;;5.17;1.90;;;8.40;99.90;;;;;;5034974;28;20207;-76
2022/04/06 06:44:30;;;;;;;4.33;2.23;;;8.50;99.90;;;;;;5019098;28;20213;-76
2022/04/06 06:46:55;;;;;;;5.50;2.60;;;8.50;99.90;;;;;;5002278;28;20625;-76
2022/04/06 06:49:21;;;;;;;4.73;2.70;;;8.50;99.90;;;;;;5042171;23;20224;-80
2022/04/06 06:51:47;;;;;;;3.10;2.00;;;8.50;99.90;;;;;;5016207;28;20181;-78
2022/04/06 06:54:12;;;;;;;6.40;2.20;;;8.50;99.90;;;;;;5016123;28;20174;-80
2022/04/06 06:56:38;;;;;;;3.40;2.00;;;8.50;99.90;;;;;;5032622;28;20629;-80
2022/04/06 06:59:03;;;;;;;3.70;1.70;;;8.40;99.90;;;;;;5015891;28;20207;-80
2022/04/06 07:01:30;;;;;;;3.53;1.77;;;8.40;99.90;;;;;;4999616;28;20180;-79
2022/04/06 07:03:56;;;;;;;3.37;1.80;;;8.40;99.90;;;;;;4999885;28;20535;-79
2022/04/06 07:06:21;;;;;;;3.60;1.80;;;8.40;99.90;;;;;;4999466;28;20194;-79
2022/04/06 07:08:47;;;;;;;3.10;1.60;;;8.40;99.90;;;;;;4999748;28;20297;-80
2022/04/06 07:11:12;;;;;;;2.77;1.60;;;8.40;99.90;;;;;;5000086;28;20175;-80
2022/04/06 07:13:38;;;;;;;2.83;1.57;;;8.40;99.90;;;;;;5000076;28;20175;-80
2022/04/06 07:16:07;;;;;;;2.90;1.87;;;8.40;99.90;;;;;;5000042;28;20175;-80
2022/04/06 07:18:33;;;;;;;2.93;1.90;;;8.40;99.90;;;;;;5000531;28;20196;-80
2022/04/06 07:21:00;;;;;;;2.40;1.47;;;8.50;99.90;;;;;;5000000;28;20175;-80
2022/04/06 07:23:25;;;;;;;3.73;1.93;;;8.40;99.90;;;;;;4999384;28;20184;-80
2022/04/06 07:25:51;;;;;;;3.30;1.53;;;8.40;99.90;;;;;;4999959;28;20264;-80
2022/04/06 07:28:17;;;;;;;2.63;1.60;;;8.50;99.90;;;;;;5016303;28;20232;-80
2022/04/06 07:30:42;;;;;;;4.17;1.63;;;8.50;99.90;;;;;;4999537;28;20283;-80
2022/04/06 07:33:13;;;;;;;2.10;1.60;;;8.50;99.90;;;;;;4999433;28;20590;-80
2022/04/06 07:35:39;;;;;;;2.50;1.67;;;8.60;99.90;;;;;;5000825;28;20192;-80
2022/04/06 07:38:05;;;;;;;4.03;1.60;;;8.60;99.90;;;;;;4999878;28;20273;-80
2022/04/06 07:40:31;;;;;;;4.17;1.80;;;8.60;99.90;;;;;;5017859;28;20657;-80
2022/04/06 07:42:56;;;;;;;3.53;1.80;;;8.60;99.90;;;;;;4999138;28;20180;-77
2022/04/06 07:45:22;;;;;;;2.47;1.50;;;8.60;99.90;;;;;;5000011;28;20170;-80
2022/04/06 07:47:51;;;;;;;2.13;1.40;;;8.60;99.90;;;;;;5016435;28;20211;-80
2022/04/06 07:50:18;;;;;;;3.60;1.80;;;8.60;99.90;;;;;;5000412;28;20200;-80
2022/04/06 07:52:44;;;;;;;4.97;1.73;;;8.50;99.90;;;;;;4999869;28;20194;-80
2022/04/06 07:55:11;;;;;;;3.00;2.00;;;8.60;99.90;;;;;;5016340;28;20585;-80
2022/04/06 07:57:38;;;;;;;4.27;1.93;;;8.60;99.90;;;;;;5016501;28;20198;-80
2022/04/06 08:00:18;;;;;;;3.80;2.10;;;8.60;99.90;;;;;;5000018;28;20665;-80
2022/04/06 08:02:49;;;;;;;2.80;1.80;;;8.60;99.90;;;;;;5000787;28;20550;-80
2022/04/06 08:05:16;;;;;;;3.30;1.80;;;8.60;99.90;;;;;;5017150;28;20163;-80
2022/04/06 08:07:45;;;;;;;4.20;2.10;;;8.60;99.90;;;;;;5000386;28;20251;-81
2022/04/06 08:10:15;;;;;;;3.73;2.30;;;8.60;99.90;;;;;;5016557;28;20695;-81
2022/04/06 08:12:41;;;;;;;4.20;1.73;;;8.60;99.90;;;;;;5016559;28;20170;-81
2022/04/06 08:15:09;;;;;;;3.27;1.90;;;8.70;99.90;;;;;;5016735;28;20178;-78
2022/04/06 08:17:46;;;;;;;4.07;2.27;;;8.70;99.90;;;;;;5001198;28;20266;-79
2022/04/06 08:20:14;;;;;;;5.40;2.30;;;8.70;99.90;;;;;;5020172;28;20181;-80
2022/04/06 08:22:41;;;;;;;7.23;2.70;;;8.80;99.90;;;;;;5003593;28;20212;-81
2022/04/06 08:25:07;;;;;;;10.87;4.03;;;8.80;99.90;;;;;;5020375;28;20185;-81
2022/04/06 08:27:39;;;;;;;16.80;9.10;;;8.80;99.90;;;;;;5003865;28;20180;-79
2022/04/06 08:30:09;;;;;;;14.63;8.00;;;8.80;99.90;;;;;;5004951;28;20196;-80
2022/04/06 08:32:35;;;;;;;17.10;9.73;;;8.80;99.90;;;;;;5004004;28;20184;-80
2022/04/06 08:35:01;;;;;;;12.13;7.33;;;8.80;99.90;;;;;;5006025;28;20541;-79
2022/04/06 08:37:30;;;;;;;6.97;4.00;;;8.90;99.90;;;;;;5006473;28;20187;-79
2022/04/06 08:39:56;;;;;;;10.63;5.50;;;8.90;99.90;;;;;;5022660;28;20215;-79
2022/04/06 08:42:23;;;;;;;7.83;4.27;;;9.00;99.90;;;;;;5018319;28;20175;-79
2022/04/06 08:44:49;;;;;;;12.23;6.47;;;9.10;99.90;;;;;;5001640;28;20279;-80
2022/04/06 08:47:17;;;;;;;10.70;5.80;;;9.20;99.90;;;;;;5018215;28;20209;-79
2022/04/06 08:49:45;;;;;;;10.67;6.17;;;9.40;99.90;;;;;;5018224;28;20235;-79
2022/04/06 08:52:11;;;;;;;11.77;6.77;;;9.50;99.90;;;;;;4997381;28;20656;-79
2022/04/06 08:54:38;;;;;;;9.37;5.33;;;9.50;99.90;;;;;;5001514;28;20651;-79
2022/04/06 08:57:05;;;;;;;10.07;5.97;;;9.40;99.90;;;;;;4985439;28;20178;-79
2022/04/06 08:59:31;;;;;;;10.70;5.20;;;9.30;99.90;;;;;;5018054;28;20205;-79
2022/04/06 09:01:57;;;;;;;17.30;7.90;;;9.30;99.90;;;;;;4985245;28;20205;-78
2022/04/06 09:04:24;;;;;;;8.07;4.00;;;9.40;99.90;;;;;;4985955;28;20540;-78
2022/04/06 09:06:50;;;;;;;14.60;7.40;;;9.30;99.90;;;;;;5001404;28;20680;-78
2022/04/06 09:09:24;;;;;;;11.50;5.70;;;9.30;99.90;;;;;;5017417;28;20750;-78
2022/04/06 09:11:50;;;;;;;8.20;4.47;;;9.30;99.90;;;;;;5017189;28;20203;-78
2022/04/06 09:14:16;;;;;;;6.27;3.10;;;9.30;99.90;;;;;;4984965;28;20179;-78
2022/04/06 09:16:41;;;;;;;3.10;2.80;;;9.30;99.90;;;;;;5000980;28;20177;-78
2022/04/06 09:19:12;;;;;;;6.10;3.47;;;9.30;99.90;;;;;;5000950;28;20291;-78
2022/04/06 09:21:46;;;;;;;6.80;3.57;;;9.30;99.90;;;;;;4985131;28;20175;-78
2022/04/06 09:24:20;;;;;;;4.70;2.47;;;9.30;99.90;;;;;;5001381;28;20198;-79
2022/04/06 09:27:03;;;;;;;3.77;2.00;;;9.40;99.90;;;;;;5000981;28;20636;-79
2022/04/06 09:29:29;;;;;;;5.07;3.50;;;9.50;99.90;;;;;;4985101;28;20268;-78
2022/04/06 09:31:55;;;;;;;4.13;2.20;;;9.40;99.90;;;;;;5000403;28;20598;-79
2022/04/06 09:34:27;;;;;;;4.83;1.90;;;9.40;99.90;;;;;;5017322;28;20632;-79
2022/04/06 09:37:01;;;;;;;4.37;2.03;;;9.60;99.90;;;;;;5017239;28;20224;-78
2022/04/06 09:39:44;;;;;;;6.47;2.63;;;9.60;99.90;;;;;;5001908;28;20205;-78
2022/04/06 09:42:20;;;;;;;3.93;2.50;;;9.70;99.90;;;;;;5016805;28;20173;-79
2022/04/06 09:47:40;;;;;;;3.87;1.97;;;9.80;99.90;;;;;;5019803;28;20753;-78
2022/04/06 09:50:12;;;;;;;6.70;2.97;;;9.70;99.90;;;;;;5016791;28;20248;-79
2022/04/06 09:52:39;;;;;;;4.17;2.50;;;9.80;99.90;;;;;;5033094;28;20196;-79
2022/04/06 09:55:09;;;;;;;4.30;2.30;;;10.00;99.90;;;;;;4984490;28;20244;-78
2022/04/06 09:57:52;;;;;;;4.37;2.50;;;10.00;99.90;;;;;;5000230;28;20185;-77
2022/04/06 10:00:20;;;;;;;4.93;2.37;;;10.20;99.90;;;;;;4999954;28;20169;-82
2022/04/06 10:02:50;;;;;;;5.67;2.63;;;10.40;99.90;;;;;;5016460;28;20649;-79
2022/04/06 10:05:18;;;;;;;3.87;2.20;;;10.30;99.90;;;;;;5016769;28;20182;-79
2022/04/06 10:07:43;;;;;;;5.73;2.93;;;10.30;99.90;;;;;;5016681;28;20245;-79
2022/04/06 10:10:13;;;;;;;4.73;2.97;;;10.30;99.90;;;;;;4984152;28;20234;-79
2022/04/06 10:12:40;;;;;;;7.63;2.87;;;10.30;99.90;;;;;;5000047;28;20175;-79
2022/04/06 10:15:06;;;;;;;5.50;2.70;;;10.30;99.90;;;;;;5016358;28;20179;-79
2022/04/06 10:17:32;;;;;;;5.10;2.80;;;10.50;99.90;;;;;;5000702;28;20171;-79
2022/04/06 10:20:19;;;;;;;4.73;2.60;;;10.60;99.90;;;;;;5016380;28;20178;-79
2022/04/06 10:23:24;;;;;;;5.43;2.50;;;10.60;99.90;;;;;;5001372;28;20182;-78
2022/04/06 10:26:06;;;;;;;6.83;3.00;;;10.60;99.90;;;;;;5032622;28;20177;-77
2022/04/06 10:28:33;;;;;;;4.50;2.60;;;10.70;99.90;;;;;;5015738;28;20274;-77
2022/04/06 10:31:19;;;;;;;6.90;2.57;;;10.80;99.90;;;;;;5000807;28;20182;-77
2022/04/06 10:33:49;;;;;;;5.67;2.87;;;11.00;99.90;;;;;;5017108;28;20187;-77
2022/04/06 10:36:26;;;;;;;6.00;3.00;;;11.00;99.90;;;;;;4999611;28;20178;-77
2022/04/06 10:39:14;;;;;;;7.00;3.13;;;11.20;99.90;;;;;;4999332;28;20194;-77
2022/04/06 10:42:14;;;;;;;4.53;2.80;;;11.00;99.90;;;;;;5014945;28;20179;-77
2022/04/06 10:44:40;;;;;;;3.43;2.90;;;11.00;99.90;;;;;;5031884;28;20170;-77
2022/04/06 10:47:10;;;;;;;4.87;2.90;;;11.20;99.90;;;;;;4999370;28;20182;-76
2022/04/06 10:49:36;;;;;;;3.80;2.70;;;11.40;99.90;;;;;;5015156;28;20598;-77
2022/04/06 10:52:23;;;;;;;4.97;2.77;;;11.30;99.90;;;;;;4998806;28;20180;-78
2022/04/06 10:54:49;;;;;;;5.80;2.80;;;11.20;99.90;;;;;;5015636;28;20194;-77
2022/04/06 10:57:14;;;;;;;4.87;2.63;;;11.30;99.90;;;;;;4999076;28;20648;-77
2022/04/06 10:59:40;;;;;;;4.70;3.00;;;11.30;99.90;;;;;;4982767;28;20316;-77
2022/04/06 11:02:21;;;;;;;6.47;3.20;;;11.20;99.90;;;;;;4998762;28;20178;-77
2022/04/06 11:04:48;;;;;;;4.23;2.80;;;11.30;99.90;;;;;;4983854;28;20181;-77
2022/04/06 11:10:25;;;;;;;5.40;3.20;;;11.40;99.90;;;;;;5032440;28;20301;-77
2022/04/06 11:13:24;;;;;;;5.80;3.20;;;11.70;99.90;;;;;;4998858;28;20265;-77
2022/04/06 11:15:51;;;;;;;3.67;3.07;;;11.70;99.90;;;;;;5031934;28;20169;-77
2022/04/06 11:18:43;;;;;;;4.43;3.33;;;11.50;99.90;;;;;;4998912;28;20199;-77
2022/04/06 11:21:10;;;;;;;8.80;3.87;;;11.50;99.90;;;;;;5002565;28;20186;-79
2022/04/06 11:23:36;;;;;;;5.53;3.63;;;11.50;99.90;;;;;;4982468;28;20595;-77
2022/04/06 11:26:01;;;;;;;9.40;4.00;;;11.40;99.90;;;;;;4982536;28;20674;-77
2022/04/06 11:28:28;;;;;;;5.23;3.83;;;11.40;99.90;;;;;;5014606;28;20217;-77
2022/04/06 11:30:54;;;;;;;7.90;4.73;;;11.30;99.90;;;;;;5015059;28;20166;-77
2022/04/06 11:33:19;;;;;;;5.33;3.73;;;11.40;99.90;;;;;;4982414;28;20235;-77
2022/04/06 11:35:45;;;;;;;5.43;3.70;;;11.30;99.90;;;;;;4982462;28;20189;-77
2022/04/06 11:38:12;;;;;;;5.63;3.60;;;11.30;99.90;;;;;;4982519;28;20203;-77
2022/04/06 11:40:39;;;;;;;5.23;3.90;;;11.20;99.90;;;;;;4998610;28;20212;-77
2022/04/06 11:43:05;;;;;;;6.00;4.10;;;11.00;99.90;;;;;;4998403;28;20327;-77
2022/04/06 11:45:32;;;;;;;7.60;3.13;;;11.20;99.90;;;;;;5014563;28;20175;-77
2022/04/06 11:48:00;;;;;;;5.50;3.60;;;11.20;99.90;;;;;;4998095;28;20206;-77
2022/04/06 11:50:34;;;;;;;5.80;3.67;;;11.30;99.90;;;;;;5014602;28;20205;-77
2022/04/06 11:53:02;;;;;;;5.03;3.43;;;11.40;99.90;;;;;;4984779;28;20543;-76
2022/04/06 11:55:47;;;;;;;7.63;3.40;;;11.50;99.90;;;;;;5003470;28;20201;-77
2022/04/06 11:58:39;;;;;;;4.37;3.10;;;11.50;99.90;;;;;;5002487;28;20197;-77
2022/04/06 12:01:14;;;;;;;4.33;3.13;;;11.50;99.90;;;;;;5018625;28;20161;-77
2022/04/06 12:03:42;;;;;;;5.63;3.33;;;11.50;99.90;;;;;;5002046;28;20170;-77
2022/04/06 12:06:10;;;;;;;4.90;3.40;;;11.40;99.90;;;;;;5002029;28;20175;-77
2022/04/06 12:08:36;;;;;;;7.17;4.67;;;11.40;99.90;;;;;;5017996;28;20692;-77
2022/04/06 12:11:03;;;;;;;6.47;4.77;;;11.50;99.90;;;;;;5001786;28;20175;-77
2022/04/06 12:13:36;;;;;;;8.57;5.83;;;11.60;99.90;;;;;;5001772;28;20178;-77
2022/04/06 12:16:03;;;;;;;7.87;4.93;;;11.80;99.90;;;;;;5018310;28;20163;-77
2022/04/06 12:18:30;;;;;;;9.93;5.13;;;12.10;99.90;;;;;;5002028;28;20564;-78
2022/04/06 12:20:56;;;;;;;9.00;5.47;;;12.10;99.90;;;;;;5002978;28;20174;-78
2022/04/06 12:23:24;;;;;;;6.80;4.97;;;11.90;99.90;;;;;;4986127;28;20273;-77
2022/04/06 12:25:51;;;;;;;8.57;6.20;;;11.90;99.90;;;;;;5018477;28;20166;-78
2022/04/06 12:28:23;;;;;;;8.50;5.43;;;12.20;99.90;;;;;;5018801;28;20233;-78
2022/04/06 12:31:06;;;;;;;8.33;4.63;;;12.50;99.90;;;;;;5002918;28;20185;-78
2022/04/06 12:33:51;;;;;;;6.07;4.17;;;12.90;99.90;;;;;;5018480;28;20181;-78
2022/04/06 12:36:19;;;;;;;4.73;3.63;;;13.20;99.90;;;;;;5002193;28;20182;-78
2022/04/06 12:39:13;;;;;;;7.70;4.53;;;13.10;99.90;;;;;;5002300;28;20248;-78
2022/04/06 12:42:02;;;;;;;8.40;6.80;;;12.80;99.90;;;;;;5003276;28;20265;-78
2022/04/06 12:44:32;;;;;;;7.13;6.17;;;12.70;99.90;;;;;;5002643;28;20210;-79
2022/04/06 12:46:58;;;;;;;8.10;5.60;;;12.60;99.90;;;;;;5002063;28;20189;-78
2022/04/06 12:49:32;;;;;;;7.40;5.90;;;12.60;99.90;;;;;;5022855;23;20307;-76
2022/04/06 12:52:08;;;;;;;7.90;5.60;;;12.70;99.90;;;;;;5036650;28;20551;-76
2022/04/06 12:54:36;;;;;;;6.13;4.40;;;12.80;99.90;;;;;;5036495;28;20176;-75
2022/04/06 12:57:05;;;;;;;7.63;5.10;;;13.20;99.90;;;;;;5036924;28;20205;-75
2022/04/06 13:00:16;;;;;;;7.47;5.57;;;13.60;99.90;;;;;;5036388;28;20201;-75
2022/04/06 13:02:45;;;;;;;8.83;6.00;;;13.60;99.90;;;;;;4953974;29;20181;-76
2022/04/06 13:05:13;;;;;;;6.93;4.60;;;13.20;99.90;;;;;;4953282;28;20173;-75
2022/04/06 13:07:40;;;;;;;8.77;7.10;;;13.00;99.90;;;;;;4965224;28;20192;-75
2022/04/06 13:10:14;;;;;;;8.03;5.57;;;13.20;99.90;;;;;;5034091;28;20221;-75
2022/04/06 13:12:42;;;;;;;6.20;4.70;;;13.20;99.90;;;;;;5006306;28;20177;-75
2022/04/06 13:15:10;;;;;;;6.33;4.60;;;13.30;99.90;;;;;;5036338;28;20173;-75
2022/04/06 13:17:37;;;;;;;6.60;4.33;;;13.10;99.90;;;;;;4999884;28;20170;-76
2022/04/06 13:20:12;;;;;;;6.93;4.13;;;13.10;99.90;;;;;;4984177;28;20584;-75